Time;durP1;ratioP1;P1;durP2;ratioP2;P2;SDS_P1;SDS_P2;PMS_P1;PMS_P2;Temp;Humidity;BMP_temperature;BMP_pressure;BME280_temperature;BME280_humidity;BME280_pressure;Samples;Min_cycle;Max_cycle;Signal;HPM_P1;HPM_P2
2022/03/05 00:00:51;;;;;;;50.70;23.53;;;0.60;75.60;;;;;;5029636;28;20483;-46
2022/03/05 00:03:19;;;;;;;44.53;23.00;;;0.50;75.70;;;;;;5045366;28;20488;-46
2022/03/05 00:05:47;;;;;;;38.07;21.20;;;0.40;75.70;;;;;;5041265;28;20556;-46
2022/03/05 00:08:14;;;;;;;49.97;23.47;;;0.40;76.10;;;;;;5038868;28;20490;-46
2022/03/05 00:10:40;;;;;;;47.33;24.40;;;0.40;76.00;;;;;;5036273;28;20474;-46
2022/03/05 00:13:08;;;;;;;51.07;26.53;;;0.40;76.10;;;;;;5046205;28;21036;-47
2022/03/05 00:15:35;;;;;;;58.47;24.27;;;0.40;77.20;;;;;;5045662;28;21305;-47
2022/03/05 00:18:02;;;;;;;49.13;22.27;;;0.40;77.20;;;;;;5047088;28;20694;-47
2022/03/05 00:20:28;;;;;;;40.97;19.70;;;0.40;77.30;;;;;;5037281;28;20491;-47
2022/03/05 00:22:56;;;;;;;53.50;22.47;;;0.40;76.50;;;;;;5048018;28;20480;-46
2022/03/05 00:25:25;;;;;;;47.97;23.53;;;0.40;76.90;;;;;;5034620;28;21221;-46
2022/03/05 00:27:51;;;;;;;50.10;25.90;;;0.40;77.20;;;;;;5042063;28;20554;-46
2022/03/05 00:30:18;;;;;;;50.90;26.43;;;0.40;77.20;;;;;;5038602;28;20503;-46
2022/03/05 00:32:46;;;;;;;63.20;32.93;;;0.50;76.70;;;;;;5046637;28;21020;-46
2022/03/05 00:35:13;;;;;;;57.60;27.70;;;0.50;76.80;;;;;;5046312;28;20799;-46
2022/03/05 00:37:40;;;;;;;57.80;29.50;;;0.50;76.80;;;;;;5042931;28;20489;-46
2022/03/05 00:40:10;;;;;;;50.57;24.87;;;0.50;77.00;;;;;;5037703;28;20487;-47
2022/03/05 00:42:37;;;;;;;49.13;26.07;;;0.50;77.30;;;;;;5040197;28;20614;-46
2022/03/05 00:45:05;;;;;;;58.23;25.50;;;0.50;77.20;;;;;;5044629;28;20496;-46
2022/03/05 00:47:32;;;;;;;57.27;25.10;;;0.50;77.20;;;;;;5043113;28;20611;-46
2022/03/05 00:49:59;;;;;;;50.10;25.93;;;0.50;77.40;;;;;;5037711;28;20483;-46
2022/03/05 00:52:26;;;;;;;50.03;25.50;;;0.50;77.60;;;;;;5047134;28;20486;-46
2022/03/05 00:54:53;;;;;;;53.10;25.07;;;0.50;77.50;;;;;;5043239;28;20568;-46
2022/03/05 00:57:21;;;;;;;49.63;24.10;;;0.50;77.50;;;;;;5045100;28;20479;-46
2022/03/05 00:59:47;;;;;;;39.93;20.80;;;0.50;77.80;;;;;;5036385;28;20494;-46
2022/03/05 01:02:14;;;;;;;48.97;25.03;;;0.50;77.50;;;;;;5046167;28;20484;-46
2022/03/05 01:04:41;;;;;;;56.40;28.73;;;0.50;77.10;;;;;;5041924;28;20477;-46
2022/03/05 01:07:08;;;;;;;54.80;28.57;;;0.50;76.70;;;;;;5060960;28;20488;-46
2022/03/05 01:09:35;;;;;;;48.60;25.63;;;0.50;76.80;;;;;;5040264;28;20493;-47
2022/03/05 01:12:01;;;;;;;48.10;24.20;;;0.60;76.70;;;;;;5044493;28;20480;-46
2022/03/05 01:14:29;;;;;;;59.47;25.27;;;0.50;76.30;;;;;;5045432;28;20487;-47
2022/03/05 01:16:56;;;;;;;47.50;23.70;;;0.50;76.00;;;;;;5033956;28;20684;-46
2022/03/05 01:19:23;;;;;;;40.13;20.43;;;0.40;75.80;;;;;;5034471;28;20485;-46
2022/03/05 01:21:49;;;;;;;48.70;22.83;;;0.40;75.80;;;;;;5046555;28;20485;-46
2022/03/05 01:24:17;;;;;;;38.80;21.83;;;0.40;75.80;;;;;;5045348;28;20760;-51
2022/03/05 01:26:44;;;;;;;34.17;19.40;;;0.30;75.80;;;;;;5044093;28;20525;-46
2022/03/05 01:29:10;;;;;;;45.20;20.43;;;0.20;75.70;;;;;;5038283;28;20485;-46
2022/03/05 01:31:38;;;;;;;41.50;20.30;;;0.20;75.90;;;;;;5045118;28;20731;-46
2022/03/05 01:34:05;;;;;;;38.00;20.40;;;0.10;76.10;;;;;;5044835;28;20486;-46
2022/03/05 01:36:32;;;;;;;43.23;21.70;;;0.10;76.30;;;;;;5044555;28;20903;-46
2022/03/05 01:38:59;;;;;;;46.83;21.40;;;0.10;76.60;;;;;;5039537;28;20869;-46
2022/03/05 01:41:25;;;;;;;39.23;20.77;;;0.00;76.60;;;;;;5044872;28;21037;-46
2022/03/05 01:43:53;;;;;;;40.50;21.63;;;0.00;76.90;;;;;;5038382;28;20997;-46
2022/03/05 01:46:29;;;;;;;49.23;24.37;;;0.00;76.80;;;;;;5042569;28;20484;-46
2022/03/05 01:48:57;;;;;;;57.73;23.67;;;-0.10;76.90;;;;;;5038917;28;20484;-46
2022/03/05 01:51:24;;;;;;;51.63;23.50;;;-0.10;77.00;;;;;;5063485;28;20713;-53
2022/03/05 01:53:51;;;;;;;48.20;22.70;;;-0.10;77.30;;;;;;5044417;28;20485;-46
2022/03/05 01:56:19;;;;;;;56.33;22.30;;;-0.10;77.60;;;;;;5045730;28;20496;-46
2022/03/05 01:58:47;;;;;;;42.90;23.17;;;-0.20;77.50;;;;;;5041146;28;20487;-46
2022/03/05 02:01:14;;;;;;;41.23;21.30;;;-0.20;77.50;;;;;;5042387;28;20485;-46
2022/03/05 02:03:42;;;;;;;58.60;25.07;;;-0.20;77.30;;;;;;5044608;28;20486;-46
2022/03/05 02:06:11;;;;;;;49.10;21.50;;;-0.20;76.90;;;;;;5045680;28;21000;-46
2022/03/05 02:08:38;;;;;;;42.43;21.70;;;-0.30;76.40;;;;;;5043067;28;20483;-47
2022/03/05 02:11:05;;;;;;;50.33;22.47;;;-0.50;76.50;;;;;;5038780;28;20479;-46
2022/03/05 02:13:32;;;;;;;36.87;20.40;;;-0.60;76.90;;;;;;5045429;28;20992;-45
2022/03/05 02:15:59;;;;;;;46.58;22.80;;;-0.60;77.10;;;;;;5044274;28;20442;-46
2022/03/05 02:18:26;;;;;;;58.27;22.83;;;-0.70;77.50;;;;;;5043671;28;20241;-46
2022/03/05 02:20:54;;;;;;;46.40;22.60;;;-0.60;77.50;;;;;;5036641;28;20486;-46
2022/03/05 02:23:21;;;;;;;48.77;24.17;;;-0.60;77.40;;;;;;5041705;28;21003;-46
2022/03/05 02:25:53;;;;;;;60.17;23.00;;;-0.60;78.00;;;;;;5034266;28;20479;-46
2022/03/05 02:28:20;;;;;;;43.03;22.10;;;-0.60;78.30;;;;;;5039258;28;20616;-45
2022/03/05 02:30:47;;;;;;;56.27;25.17;;;-0.60;78.40;;;;;;5029423;28;20581;-45
2022/03/05 02:33:14;;;;;;;50.40;23.90;;;-0.70;78.10;;;;;;5046763;28;20472;-46
2022/03/05 02:35:43;;;;;;;42.47;21.17;;;-0.90;77.90;;;;;;5046280;28;21342;-46
2022/03/05 02:38:12;;;;;;;45.00;23.20;;;-0.90;78.20;;;;;;5038859;28;20529;-48
2022/03/05 02:40:40;;;;;;;47.33;21.37;;;-1.10;77.40;;;;;;5048697;28;20498;-46
2022/03/05 02:43:07;;;;;;;44.97;20.77;;;-1.20;77.50;;;;;;5074984;28;20472;-46
2022/03/05 02:45:34;;;;;;;44.00;23.20;;;-1.30;78.70;;;;;;5047845;28;20504;-45
2022/03/05 02:48:03;;;;;;;43.70;21.47;;;-1.30;78.70;;;;;;5045418;28;20825;-45
2022/03/05 02:50:30;;;;;;;50.23;23.53;;;-1.20;78.80;;;;;;5040513;28;21161;-46
2022/03/05 02:52:57;;;;;;;60.73;21.03;;;-1.20;79.10;;;;;;5047747;28;20486;-46
2022/03/05 02:55:25;;;;;;;45.97;19.30;;;-1.10;79.40;;;;;;5047067;28;20485;-46
2022/03/05 02:57:52;;;;;;;44.37;21.33;;;-1.10;79.20;;;;;;5045516;28;20481;-46
2022/03/05 03:00:20;;;;;;;54.73;24.43;;;-1.00;78.80;;;;;;5037091;28;20488;-46
2022/03/05 03:02:47;;;;;;;45.57;20.00;;;-1.00;77.80;;;;;;5044976;28;20475;-46
2022/03/05 03:05:14;;;;;;;43.87;21.90;;;-1.00;77.60;;;;;;5046828;28;20488;-46
2022/03/05 03:07:41;;;;;;;40.13;19.47;;;-1.30;77.60;;;;;;5044114;28;20510;-46
2022/03/05 03:10:09;;;;;;;42.03;21.17;;;-1.40;78.30;;;;;;5039854;28;20478;-46
2022/03/05 03:12:38;;;;;;;44.80;20.23;;;-1.50;78.50;;;;;;5047119;28;20517;-46
2022/03/05 03:15:07;;;;;;;44.60;18.13;;;-1.60;79.10;;;;;;5044881;28;20486;-46
2022/03/05 03:17:40;;;;;;;43.90;18.87;;;-1.60;79.00;;;;;;5046729;28;20494;-46
2022/03/05 03:20:08;;;;;;;36.60;18.23;;;-1.50;79.40;;;;;;5040502;28;21081;-46
2022/03/05 03:22:34;;;;;;;53.40;20.70;;;-1.50;79.20;;;;;;5046648;28;20735;-46
2022/03/05 03:25:01;;;;;;;43.40;19.67;;;-1.40;79.20;;;;;;5046996;28;20685;-46
2022/03/05 03:27:28;;;;;;;46.27;19.37;;;-1.30;78.60;;;;;;5048089;28;20847;-46
2022/03/05 03:29:56;;;;;;;38.63;18.47;;;-1.30;78.30;;;;;;5038979;28;20489;-46
2022/03/05 03:32:23;;;;;;;42.03;17.60;;;-1.30;77.90;;;;;;5046157;28;20490;-46
2022/03/05 03:34:50;;;;;;;47.27;19.67;;;-1.30;78.40;;;;;;5045852;28;20481;-46
2022/03/05 03:37:17;;;;;;;42.50;19.70;;;-1.20;78.60;;;;;;5045424;28;20485;-46
2022/03/05 03:39:43;;;;;;;48.70;20.43;;;-1.20;78.40;;;;;;5037656;28;20478;-46
2022/03/05 03:42:10;;;;;;;43.73;21.40;;;-1.20;77.90;;;;;;5046325;28;20486;-46
2022/03/05 03:44:37;;;;;;;37.33;19.50;;;-1.20;77.40;;;;;;5046362;28;20705;-46
2022/03/05 03:47:06;;;;;;;45.07;19.10;;;-1.20;77.40;;;;;;5035302;28;20584;-46
2022/03/05 03:49:33;;;;;;;46.70;19.27;;;-1.20;77.40;;;;;;5038635;28;20482;-46
2022/03/05 03:51:59;;;;;;;44.33;20.60;;;-1.20;77.10;;;;;;5044485;28;20479;-46
2022/03/05 03:54:27;;;;;;;43.90;20.50;;;-1.30;76.70;;;;;;5045088;28;20494;-46
2022/03/05 03:56:53;;;;;;;35.97;18.30;;;-1.30;76.70;;;;;;5044507;28;20846;-46
2022/03/05 03:59:20;;;;;;;42.70;20.23;;;-1.30;76.90;;;;;;5024432;28;20525;-46
2022/03/05 04:01:47;;;;;;;36.90;19.80;;;-1.40;77.20;;;;;;5045798;28;20725;-45
2022/03/05 04:04:15;;;;;;;52.13;21.30;;;-1.40;77.40;;;;;;5046830;28;20499;-46
2022/03/05 04:09:26;;;;;;;38.50;19.57;;;;;;;;;;5056123;28;21130;-47
2022/03/05 04:11:53;;;;;;;41.93;19.77;;;-1.50;77.00;;;;;;5043397;28;21030;-46
2022/03/05 04:14:20;;;;;;;35.80;18.77;;;-1.50;76.60;;;;;;5065644;28;20546;-46
2022/03/05 04:16:47;;;;;;;31.17;17.87;;;-1.40;76.80;;;;;;5045483;28;20472;-46
2022/03/05 04:19:15;;;;;;;35.33;18.40;;;-1.50;76.60;;;;;;5015502;28;20908;-46
2022/03/05 04:21:41;;;;;;;35.70;18.37;;;-1.50;76.80;;;;;;5023080;28;20471;-46
2022/03/05 04:24:08;;;;;;;46.60;18.00;;;;;;;;;;5043367;28;20484;-46
2022/03/05 04:26:35;;;;;;;42.50;21.10;;;-1.50;77.70;;;;;;5039925;28;20552;-46
2022/03/05 04:29:02;;;;;;;40.40;18.17;;;-1.50;77.70;;;;;;5034989;28;20491;-46
2022/03/05 04:31:28;;;;;;;33.37;17.90;;;-1.50;77.50;;;;;;5046666;28;20478;-46
2022/03/05 04:33:55;;;;;;;43.90;19.07;;;-1.50;77.80;;;;;;5044801;28;20997;-46
2022/03/05 04:36:23;;;;;;;35.03;18.50;;;-1.50;78.10;;;;;;5043563;28;20901;-46
2022/03/05 04:38:50;;;;;;;46.00;20.57;;;;;;;;;;5042185;28;20853;-46
2022/03/05 04:41:18;;;;;;;51.60;19.30;;;-1.50;77.80;;;;;;5041132;28;20475;-46
2022/03/05 04:43:45;;;;;;;43.17;18.60;;;-1.50;77.70;;;;;;5043689;28;20824;-46
2022/03/05 04:46:12;;;;;;;36.77;18.23;;;;;;;;;;5043712;28;21009;-46
2022/03/05 04:48:39;;;;;;;45.33;19.50;;;-1.50;79.30;;;;;;5042190;28;21018;-46
2022/03/05 04:51:06;;;;;;;39.93;17.97;;;-1.50;78.80;;;;;;5041864;28;20978;-46
2022/03/05 04:53:34;;;;;;;35.33;17.47;;;-1.60;77.80;;;;;;5043030;28;20491;-46
2022/03/05 04:56:00;;;;;;;41.93;17.93;;;-1.60;77.80;;;;;;5043859;28;20492;-46
2022/03/05 04:58:27;;;;;;;39.97;18.20;;;-1.60;78.00;;;;;;5044408;28;20952;-46
2022/03/05 05:00:54;;;;;;;37.17;18.50;;;-1.60;78.60;;;;;;5036568;28;20498;-46
2022/03/05 05:03:21;;;;;;;32.20;16.13;;;-1.60;79.10;;;;;;5028697;28;21051;-46
2022/03/05 05:05:47;;;;;;;47.90;19.77;;;-1.60;78.80;;;;;;5046347;28;20478;-46
2022/03/05 05:08:14;;;;;;;41.50;19.83;;;;;;;;;;5043283;28;20492;-46
2022/03/05 05:10:42;;;;;;;45.73;19.60;;;-1.70;77.30;;;;;;5036982;28;20477;-46
2022/03/05 05:13:09;;;;;;;44.63;19.97;;;-1.70;76.90;;;;;;5045592;28;20474;-46
2022/03/05 05:15:36;;;;;;;35.47;17.67;;;;;;;;;;5044957;28;21101;-46
2022/03/05 05:18:03;;;;;;;38.57;18.83;;;-1.70;77.10;;;;;;5044354;28;21426;-46
2022/03/05 05:20:30;;;;;;;38.07;17.43;;;-1.70;77.00;;;;;;5036688;28;20492;-46
2022/03/05 05:22:57;;;;;;;41.13;18.23;;;-1.70;77.10;;;;;;5044384;28;20485;-46
2022/03/05 05:25:24;;;;;;;38.23;19.33;;;-1.70;77.50;;;;;;5044398;28;20491;-46
2022/03/05 05:27:52;;;;;;;36.60;17.97;;;-1.70;77.70;;;;;;5043591;28;21332;-46
2022/03/05 05:30:19;;;;;;;38.27;17.40;;;-1.70;77.70;;;;;;5036719;28;20775;-46
2022/03/05 05:32:45;;;;;;;39.23;16.47;;;-1.80;77.40;;;;;;5043743;28;20926;-45
2022/03/05 05:35:12;;;;;;;28.10;15.60;;;-1.70;77.10;;;;;;5041034;28;20677;-45
2022/03/05 05:37:39;;;;;;;29.93;15.57;;;-1.90;76.80;;;;;;5046956;28;20852;-46
2022/03/05 05:40:07;;;;;;;36.10;18.20;;;-2.00;76.70;;;;;;5054829;28;20485;-46
2022/03/05 05:42:34;;;;;;;32.63;17.57;;;-2.10;76.70;;;;;;5042892;28;20479;-46
2022/03/05 05:45:02;;;;;;;34.50;16.93;;;-2.10;76.90;;;;;;5040651;28;20484;-46
2022/03/05 05:47:29;;;;;;;48.20;18.57;;;-2.20;76.90;;;;;;5042279;28;20487;-46
2022/03/05 05:49:56;;;;;;;37.63;18.20;;;-2.20;76.90;;;;;;5037234;28;20497;-46
2022/03/05 05:52:23;;;;;;;36.23;17.43;;;-2.20;77.60;;;;;;5042496;28;20473;-46
2022/03/05 05:54:50;;;;;;;51.40;18.23;;;-2.20;77.80;;;;;;5044859;28;20897;-45
2022/03/05 05:57:16;;;;;;;39.23;17.57;;;-2.20;78.10;;;;;;5043331;28;21025;-45
2022/03/05 05:59:43;;;;;;;28.30;15.87;;;-2.10;78.40;;;;;;5036388;28;20484;-45
2022/03/05 06:02:11;;;;;;;35.37;17.63;;;-2.10;78.80;;;;;;5042125;28;20491;-45
2022/03/05 06:04:38;;;;;;;40.40;18.20;;;-2.10;78.90;;;;;;5041820;28;20928;-45
2022/03/05 06:07:05;;;;;;;43.33;17.57;;;-2.10;79.00;;;;;;5044928;28;20498;-46
2022/03/05 06:09:31;;;;;;;43.17;18.43;;;-2.10;79.00;;;;;;5036838;28;20893;-47
2022/03/05 06:11:58;;;;;;;51.00;20.27;;;-2.10;79.00;;;;;;5041646;28;20489;-46
2022/03/05 06:14:25;;;;;;;40.47;18.30;;;-2.00;79.20;;;;;;5045500;28;20485;-46
2022/03/05 06:16:51;;;;;;;33.70;18.27;;;-2.00;79.00;;;;;;5044431;28;20483;-46
2022/03/05 06:19:19;;;;;;;45.70;19.20;;;-2.00;78.80;;;;;;5036914;28;20769;-46
2022/03/05 06:21:46;;;;;;;42.53;19.20;;;-1.90;78.90;;;;;;5043340;28;20478;-46
2022/03/05 06:24:13;;;;;;;45.57;23.17;;;-1.90;79.10;;;;;;5045027;28;20477;-46
2022/03/05 06:26:40;;;;;;;50.07;20.67;;;-1.90;78.90;;;;;;5041971;28;20968;-46
2022/03/05 06:29:07;;;;;;;33.17;18.70;;;-1.80;78.90;;;;;;5037107;28;21024;-46
2022/03/05 06:31:33;;;;;;;48.07;20.47;;;-1.80;79.20;;;;;;5041493;28;20911;-46
2022/03/05 06:34:00;;;;;;;35.23;17.00;;;-1.90;79.40;;;;;;5039942;28;20967;-46
2022/03/05 06:36:29;;;;;;;54.27;20.43;;;-1.80;79.80;;;;;;5042575;28;20877;-46
2022/03/05 06:38:56;;;;;;;39.33;17.93;;;-1.80;79.90;;;;;;5037232;28;21060;-46
2022/03/05 06:41:23;;;;;;;47.37;20.33;;;-1.80;79.80;;;;;;5039337;28;20477;-46
2022/03/05 06:43:49;;;;;;;51.87;19.90;;;-1.70;79.90;;;;;;5044858;28;20778;-45
2022/03/05 06:46:16;;;;;;;49.70;22.77;;;-1.60;80.10;;;;;;5043558;28;20475;-46
2022/03/05 06:48:46;;;;;;;48.07;20.47;;;-1.60;80.10;;;;;;5039737;28;20559;-46
2022/03/05 06:51:13;;;;;;;42.80;20.80;;;-1.50;79.40;;;;;;5032898;28;20481;-46
2022/03/05 06:53:41;;;;;;;45.47;19.67;;;-1.50;79.60;;;;;;5044577;28;20486;-46
2022/03/05 06:56:08;;;;;;;39.57;19.77;;;-1.40;79.60;;;;;;5044695;28;20474;-46
2022/03/05 06:58:34;;;;;;;40.23;18.60;;;-1.40;79.80;;;;;;5039494;28;21094;-46
2022/03/05 07:01:01;;;;;;;46.23;19.80;;;-1.30;80.10;;;;;;5033368;28;21000;-46
2022/03/05 07:03:28;;;;;;;42.97;19.87;;;-1.20;80.40;;;;;;5042782;28;20481;-46
2022/03/05 07:05:54;;;;;;;51.73;22.50;;;-1.20;80.70;;;;;;5044364;28;20478;-46
2022/03/05 07:08:21;;;;;;;48.43;19.93;;;-1.10;81.40;;;;;;5042499;28;20481;-46
2022/03/05 07:10:49;;;;;;;49.07;21.80;;;-0.80;82.40;;;;;;5036066;28;20477;-46
2022/03/05 07:13:16;;;;;;;61.83;27.07;;;0.50;85.30;;;;;;5046823;28;20491;-46
2022/03/05 07:15:43;;;;;;;63.83;28.20;;;1.60;84.90;;;;;;5043172;28;20488;-46
2022/03/05 07:18:10;;;;;;;61.17;26.90;;;2.70;82.90;;;;;;5042710;28;20551;-46
2022/03/05 07:20:37;;;;;;;60.90;24.13;;;4.40;79.20;;;;;;5032233;28;20495;-46
2022/03/05 07:23:04;;;;;;;48.97;22.33;;;5.50;76.90;;;;;;5044325;28;20490;-47
2022/03/05 07:25:36;;;;;;;63.80;24.97;;;6.70;74.20;;;;;;5042534;28;20911;-47
2022/03/05 07:28:04;;;;;;;46.37;24.27;;;7.80;72.70;;;;;;5042781;28;20476;-47
2022/03/05 07:30:31;;;;;;;47.90;23.57;;;8.60;70.90;;;;;;5038114;28;20482;-47
2022/03/05 07:32:57;;;;;;;54.73;24.60;;;9.40;69.60;;;;;;5042044;28;21060;-47
2022/03/05 07:35:24;;;;;;;58.67;24.20;;;10.40;66.90;;;;;;5043713;28;20841;-47
2022/03/05 07:37:51;;;;;;;46.40;23.67;;;11.00;65.40;;;;;;5041780;28;20496;-47
2022/03/05 07:40:18;;;;;;;49.10;23.63;;;11.60;64.10;;;;;;5037156;28;20886;-47
2022/03/05 07:42:45;;;;;;;52.43;22.13;;;12.40;63.40;;;;;;5044383;28;20504;-47
2022/03/05 07:45:13;;;;;;;46.57;24.67;;;12.90;62.50;;;;;;5044120;28;20847;-47
2022/03/05 07:47:41;;;;;;;42.40;23.30;;;13.30;61.50;;;;;;5041923;28;20875;-47
2022/03/05 07:50:08;;;;;;;51.33;24.70;;;13.90;60.00;;;;;;5036473;28;20554;-47
2022/03/05 07:52:35;;;;;;;40.83;22.93;;;14.20;60.00;;;;;;5041992;28;20495;-47
2022/03/05 07:55:02;;;;;;;42.50;22.03;;;14.50;59.00;;;;;;5042816;28;21094;-47
2022/03/05 07:57:28;;;;;;;44.67;22.30;;;14.90;58.70;;;;;;5042296;28;21032;-48
2022/03/05 07:59:55;;;;;;;41.37;22.50;;;15.00;58.00;;;;;;5035976;28;20483;-47
2022/03/05 08:02:24;;;;;;;44.40;22.60;;;15.20;58.30;;;;;;5043250;28;20489;-47
2022/03/05 08:04:51;;;;;;;49.67;23.70;;;15.50;58.00;;;;;;5041148;28;20513;-47
2022/03/05 08:07:17;;;;;;;44.00;20.80;;;15.60;57.30;;;;;;5041417;28;20486;-47
2022/03/05 08:09:44;;;;;;;37.40;21.07;;;15.80;57.60;;;;;;5033999;28;20903;-47
2022/03/05 08:12:11;;;;;;;42.23;22.60;;;16.00;57.60;;;;;;5042422;28;20778;-47
2022/03/05 08:14:38;;;;;;;38.43;21.80;;;16.00;57.70;;;;;;5041795;28;20832;-47
2022/03/05 08:17:05;;;;;;;36.63;20.70;;;16.10;57.20;;;;;;5040490;28;20486;-47
2022/03/05 08:19:33;;;;;;;37.60;23.13;;;16.00;56.90;;;;;;5035684;28;20483;-47
2022/03/05 08:22:00;;;;;;;37.60;21.23;;;15.80;56.60;;;;;;5043469;28;20490;-47
2022/03/05 08:24:26;;;;;;;32.73;19.70;;;15.60;57.20;;;;;;5042579;28;20486;-47
2022/03/05 08:26:53;;;;;;;33.77;18.93;;;15.10;57.20;;;;;;5028086;28;20533;-44
2022/03/05 08:29:20;;;;;;;35.00;19.27;;;14.90;57.60;;;;;;5051358;28;20488;-44
2022/03/05 08:31:46;;;;;;;33.90;19.80;;;14.50;57.40;;;;;;5043478;28;20574;-44
2022/03/05 08:34:13;;;;;;;32.33;19.73;;;14.10;58.20;;;;;;5040470;28;20489;-46
2022/03/05 08:36:41;;;;;;;34.83;20.83;;;13.80;58.40;;;;;;5039984;28;21102;-46
2022/03/05 08:39:08;;;;;;;33.93;17.77;;;13.60;58.50;;;;;;5034725;28;20481;-46
2022/03/05 08:41:35;;;;;;;38.90;19.80;;;13.30;58.30;;;;;;5042196;28;20482;-45
2022/03/05 08:44:02;;;;;;;30.07;17.87;;;13.10;59.30;;;;;;5048976;28;21035;-46
2022/03/05 08:46:29;;;;;;;31.23;17.10;;;12.90;59.60;;;;;;5054865;28;21012;-46
2022/03/05 08:48:55;;;;;;;36.33;16.80;;;12.60;60.10;;;;;;5048121;28;20481;-45
2022/03/05 08:51:22;;;;;;;32.70;17.13;;;12.40;59.00;;;;;;5049310;28;20488;-45
2022/03/05 08:53:50;;;;;;;31.67;19.57;;;12.20;60.00;;;;;;5041793;28;20998;-45
2022/03/05 08:56:17;;;;;;;34.07;18.50;;;12.00;60.60;;;;;;5040739;28;21082;-45
2022/03/05 08:58:43;;;;;;;27.37;16.27;;;12.00;61.20;;;;;;5039352;28;20489;-45
2022/03/05 09:01:10;;;;;;;28.37;16.37;;;12.00;62.00;;;;;;5037749;28;20477;-46
2022/03/05 09:03:37;;;;;;;31.80;16.77;;;11.90;61.00;;;;;;5040276;28;20486;-46
2022/03/05 09:06:04;;;;;;;29.70;16.03;;;11.60;61.50;;;;;;5038104;28;20832;-45
2022/03/05 09:08:31;;;;;;;29.60;15.80;;;11.60;61.00;;;;;;5041462;28;20484;-45
2022/03/05 09:10:59;;;;;;;32.10;15.00;;;11.50;61.20;;;;;;5024791;28;21018;-45
2022/03/05 09:13:26;;;;;;;24.57;14.20;;;11.50;61.10;;;;;;5041309;28;21114;-45
2022/03/05 09:15:53;;;;;;;28.30;17.27;;;11.30;62.10;;;;;;5042269;28;20482;-45
2022/03/05 09:18:19;;;;;;;29.17;16.77;;;11.40;63.50;;;;;;5042998;28;20477;-45
2022/03/05 09:20:47;;;;;;;28.50;14.37;;;11.40;61.10;;;;;;5032804;28;20492;-45
2022/03/05 09:23:14;;;;;;;28.17;16.00;;;11.40;62.40;;;;;;5041838;28;20493;-45
2022/03/05 09:25:41;;;;;;;29.87;14.03;;;11.60;62.20;;;;;;5039476;28;20836;-45
2022/03/05 09:28:09;;;;;;;20.50;13.00;;;11.60;61.30;;;;;;5042183;28;20477;-45
2022/03/05 09:30:36;;;;;;;20.87;12.63;;;11.70;61.40;;;;;;5037357;28;21061;-45
2022/03/05 09:33:02;;;;;;;23.70;11.83;;;11.80;60.70;;;;;;5054695;28;20489;-45
2022/03/05 09:35:29;;;;;;;20.87;13.50;;;11.90;60.50;;;;;;5023919;28;21033;-45
2022/03/05 09:37:56;;;;;;;19.53;11.90;;;11.80;59.60;;;;;;5066909;28;20488;-45
2022/03/05 09:40:24;;;;;;;25.50;13.07;;;11.90;60.20;;;;;;5053222;28;20483;-45
2022/03/05 09:42:50;;;;;;;23.70;14.03;;;12.00;59.50;;;;;;5055972;28;20754;-45
2022/03/05 09:45:18;;;;;;;17.80;12.07;;;12.00;58.80;;;;;;5045644;28;20856;-45
2022/03/05 09:47:45;;;;;;;22.93;12.67;;;12.00;58.60;;;;;;5045329;28;20501;-45
2022/03/05 09:50:12;;;;;;;19.50;12.30;;;12.00;58.70;;;;;;5041419;28;20484;-44
2022/03/05 09:52:39;;;;;;;24.80;13.10;;;12.00;59.10;;;;;;5042627;28;21037;-46
2022/03/05 09:55:07;;;;;;;25.83;11.80;;;12.00;58.30;;;;;;5043869;28;20476;-45
2022/03/05 09:57:34;;;;;;;22.40;10.93;;;12.00;56.80;;;;;;5046891;28;20521;-45
2022/03/05 10:00:02;;;;;;;15.00;10.60;;;12.00;57.40;;;;;;5043036;28;20487;-45
2022/03/05 10:02:30;;;;;;;14.63;10.53;;;12.00;57.40;;;;;;5046400;28;20490;-45
2022/03/05 10:05:14;;;;;;;14.80;9.90;;;12.20;57.30;;;;;;5036107;28;20481;-46
2022/03/05 10:07:59;;;;;;;17.20;10.00;;;12.20;57.80;;;;;;5035619;28;20494;-46
2022/03/05 10:10:26;;;;;;;12.20;7.77;;;12.30;56.20;;;;;;5039107;28;20822;-45
2022/03/05 10:12:53;;;;;;;15.07;9.30;;;12.30;55.00;;;;;;5045260;28;20480;-45
2022/03/05 10:15:21;;;;;;;10.90;7.77;;;12.40;55.00;;;;;;5050332;28;20480;-46
2022/03/05 10:17:55;;;;;;;14.33;9.40;;;12.50;54.20;;;;;;5046713;28;20487;-45
2022/03/05 10:20:23;;;;;;;41.47;21.33;;;12.50;53.20;;;;;;5061701;28;20480;-45
2022/03/05 10:23:02;;;;;;;12.87;7.90;;;12.50;54.50;;;;;;5047857;28;20478;-45
2022/03/05 10:25:33;;;;;;;17.40;7.60;;;12.40;52.40;;;;;;5047290;28;20888;-44
2022/03/05 10:28:09;;;;;;;12.83;7.70;;;12.30;52.20;;;;;;5048450;28;20485;-45
2022/03/05 10:30:38;;;;;;;13.30;8.67;;;12.30;53.50;;;;;;5037795;28;20489;-46
2022/03/05 10:33:07;;;;;;;10.50;7.30;;;12.00;51.80;;;;;;5019878;28;21025;-45
2022/03/05 10:35:34;;;;;;;10.03;6.60;;;12.10;53.70;;;;;;5016491;28;20606;-45
2022/03/05 10:38:01;;;;;;;8.63;5.87;;;11.80;51.50;;;;;;5028662;28;20486;-45
2022/03/05 10:40:30;;;;;;;10.53;7.40;;;11.70;51.50;;;;;;5017727;28;20483;-46
2022/03/05 10:43:00;;;;;;;10.93;7.30;;;11.70;51.90;;;;;;5027351;28;20651;-46
2022/03/05 10:45:29;;;;;;;16.50;8.77;;;11.10;52.20;;;;;;5026888;28;20582;-45
2022/03/05 10:47:56;;;;;;;15.00;8.67;;;11.10;52.90;;;;;;5028143;28;20489;-46
2022/03/05 10:50:26;;;;;;;9.50;7.70;;;11.20;53.80;;;;;;5014211;28;20915;-46
2022/03/05 10:52:56;;;;;;;7.17;5.83;;;11.30;52.50;;;;;;5024995;28;20485;-45
2022/03/05 10:55:25;;;;;;;12.20;7.83;;;11.30;53.30;;;;;;5024619;28;20478;-45
2022/03/05 10:58:03;;;;;;;10.83;7.17;;;11.40;52.50;;;;;;5023413;28;20493;-46
2022/03/05 11:00:31;;;;;;;11.60;8.07;;;11.40;52.50;;;;;;5018488;28;21039;-47
2022/03/05 11:03:00;;;;;;;10.70;7.23;;;11.30;52.40;;;;;;5024291;28;20486;-46
2022/03/05 11:05:28;;;;;;;8.90;6.80;;;11.00;51.70;;;;;;5019923;28;21137;-45
2022/03/05 11:07:55;;;;;;;11.87;7.07;;;11.00;52.60;;;;;;5023072;28;21173;-45
2022/03/05 11:10:26;;;;;;;9.67;7.80;;;11.00;52.70;;;;;;5017872;28;20516;-45
2022/03/05 11:12:56;;;;;;;11.87;6.87;;;11.10;51.10;;;;;;5020102;28;20521;-45
2022/03/05 11:15:23;;;;;;;30.17;7.67;;;11.10;53.20;;;;;;5024260;28;20520;-45
2022/03/05 11:17:50;;;;;;;11.77;6.90;;;;;;;;;;5024350;28;20478;-45
2022/03/05 11:20:17;;;;;;;8.07;5.80;;;10.90;53.60;;;;;;5014358;28;21074;-46
2022/03/05 11:22:49;;;;;;;12.50;8.87;;;10.90;54.00;;;;;;5021250;28;20490;-46
2022/03/05 11:25:18;;;;;;;10.53;6.80;;;10.90;52.80;;;;;;5017049;28;20493;-46
2022/03/05 11:27:57;;;;;;;8.73;5.83;;;11.00;53.20;;;;;;5020176;28;20482;-46
2022/03/05 11:30:24;;;;;;;10.60;7.77;;;11.10;52.30;;;;;;5014287;28;21174;-45
2022/03/05 11:32:51;;;;;;;10.53;7.27;;;11.20;51.80;;;;;;5023771;28;20490;-46
2022/03/05 11:35:21;;;;;;;8.23;5.63;;;11.50;53.10;;;;;;5036926;28;20481;-47
2022/03/05 11:37:50;;;;;;;11.33;6.90;;;11.30;53.10;;;;;;5027309;28;20475;-45
2022/03/05 11:40:36;;;;;;;12.90;7.17;;;11.30;51.30;;;;;;5016685;28;20491;-45
2022/03/05 11:43:19;;;;;;;11.43;7.20;;;11.30;53.00;;;;;;5023371;28;20790;-45
2022/03/05 11:45:55;;;;;;;8.37;5.80;;;11.20;50.20;;;;;;5043144;28;20474;-46
2022/03/05 11:48:30;;;;;;;7.67;5.90;;;11.10;51.30;;;;;;5043880;28;20701;-45
2022/03/05 11:50:59;;;;;;;13.60;6.50;;;11.00;50.70;;;;;;5037130;28;20561;-45
2022/03/05 11:53:28;;;;;;;12.00;8.27;;;11.10;51.40;;;;;;5041075;28;20483;-45
2022/03/05 11:55:55;;;;;;;14.50;7.33;;;11.20;49.60;;;;;;5043136;28;21397;-45
2022/03/05 11:58:33;;;;;;;12.43;8.40;;;11.20;50.50;;;;;;5041821;28;20485;-46
2022/03/05 12:01:33;;;;;;;13.43;8.30;;;11.20;50.00;;;;;;5038247;28;22894;-46
2022/03/05 12:04:05;;;;;;;9.00;5.87;;;11.40;51.60;;;;;;5060052;28;21012;-45
2022/03/05 12:06:43;;;;;;;5.63;3.90;;;11.30;50.60;;;;;;5042848;28;20570;-45
2022/03/05 12:09:31;;;;;;;12.47;6.60;;;11.30;50.20;;;;;;5035078;28;20490;-45
2022/03/05 12:11:59;;;;;;;11.10;7.23;;;11.40;50.50;;;;;;5059935;28;21278;-46
2022/03/05 12:15:09;;;;;;;9.00;5.80;;;11.30;49.50;;;;;;5043765;28;20482;-45
2022/03/05 12:17:40;;;;;;;10.83;5.63;;;11.30;49.30;;;;;;5039352;28;20504;-45
2022/03/05 12:20:08;;;;;;;11.93;7.13;;;11.20;50.50;;;;;;5037869;28;20470;-45
2022/03/05 12:22:35;;;;;;;12.80;6.10;;;11.20;51.60;;;;;;5041643;28;20906;-46
2022/03/05 12:25:04;;;;;;;12.33;7.43;;;11.30;50.50;;;;;;5053445;28;20473;-45
2022/03/05 12:27:31;;;;;;;12.23;6.37;;;11.20;51.20;;;;;;5050770;28;20481;-45
2022/03/05 12:29:58;;;;;;;10.50;7.07;;;11.30;50.10;;;;;;5042329;28;20816;-45
2022/03/05 12:32:30;;;;;;;9.03;6.20;;;11.30;50.50;;;;;;5050766;28;20565;-46
2022/03/05 12:35:04;;;;;;;10.77;5.90;;;11.10;49.30;;;;;;5043674;28;20476;-45
2022/03/05 12:37:31;;;;;;;8.97;6.10;;;11.20;50.20;;;;;;5040765;28;20489;-46
2022/03/05 12:39:59;;;;;;;34.47;12.53;;;11.40;50.10;;;;;;5031811;28;20509;-46